createdAt,value
2023-02-24T00:02:15.004Z,20.75
2023-02-24T00:04:41.867Z,21.10
2023-02-24T00:07:15.001Z,29.92
2023-02-24T00:09:41.554Z,24.77
2023-02-24T00:12:13.013Z,23.27
2023-02-24T00:14:41.976Z,20.83
2023-02-24T00:17:09.278Z,19.88
2023-02-24T00:19:37.009Z,20.58
2023-02-24T00:22:06.150Z,21.95
2023-02-24T00:24:34.784Z,22.10
2023-02-24T00:27:08.467Z,25.38
2023-02-24T00:29:37.545Z,26.15
2023-02-24T00:32:09.980Z,24.27
2023-02-24T00:34:37.709Z,19.88
2023-02-24T00:37:06.892Z,16.05
2023-02-24T00:39:35.256Z,19.08
2023-02-24T00:42:04.934Z,14.18
2023-02-24T00:44:36.861Z,21.92
2023-02-24T00:47:05.210Z,20.88
2023-02-24T00:49:32.948Z,21.70
2023-02-24T00:52:00.034Z,19.42
2023-02-24T00:54:29.610Z,27.40
2023-02-24T00:56:57.031Z,23.90
2023-02-24T00:59:26.617Z,21.23
2023-02-24T01:01:54.621Z,22.15
2023-02-24T01:04:21.829Z,13.07
2023-02-24T01:06:51.213Z,18.05
2023-02-24T01:09:20.463Z,20.33
2023-02-24T01:12:07.964Z,25.05
2023-02-24T01:14:36.116Z,25.20
2023-02-24T01:17:04.131Z,21.98
2023-02-24T01:19:32.631Z,23.50
2023-02-24T01:22:01.403Z,21.95
2023-02-24T01:24:30.639Z,21.45
2023-02-24T01:26:59.803Z,16.85
2023-02-24T01:29:26.401Z,20.63
2023-02-24T01:31:57.736Z,22.05
2023-02-24T01:37:48.245Z,28.33
2023-02-24T01:40:20.473Z,27.60
2023-02-24T01:42:47.605Z,20.50
2023-02-24T01:45:19.126Z,24.73
2023-02-24T01:47:47.273Z,18.25
2023-02-24T01:50:16.181Z,25.90
2023-02-24T01:52:46.855Z,21.15
2023-02-24T01:55:22.361Z,23.80
2023-02-24T01:57:53.417Z,33.97
2023-02-24T02:00:40.338Z,19.67
2023-02-24T02:03:13.298Z,20.92
2023-02-24T02:05:41.361Z,25.08
2023-02-24T02:08:09.224Z,27.75
2023-02-24T02:10:39.173Z,32.08
2023-02-24T02:13:08.282Z,27.10
2023-02-24T02:15:41.515Z,24.65
2023-02-24T02:18:35.476Z,28.97
2023-02-24T02:21:34.392Z,22.83
2023-02-24T02:24:27.364Z,24.50
2023-02-24T02:27:21.032Z,22.58
2023-02-24T02:30:06.480Z,21.52
2023-02-24T02:32:43.610Z,29.55
2023-02-24T02:35:23.693Z,31.15
2023-02-24T02:38:15.139Z,27.52
2023-02-24T02:40:53.040Z,22.58
2023-02-24T02:43:33.196Z,20.55
2023-02-24T02:46:14.765Z,22.95
2023-02-24T02:48:48.731Z,21.33
2023-02-24T02:51:24.591Z,21.38
2023-02-24T02:54:01.356Z,25.52
2023-02-24T02:56:37.643Z,27.13
2023-02-24T02:59:06.708Z,17.50
2023-02-24T03:01:37.704Z,19.08
2023-02-24T03:04:08.484Z,23.35
2023-02-24T03:06:43.675Z,16.52
2023-02-24T03:09:16.330Z,19.88
2023-02-24T03:11:53.070Z,26.63
2023-02-24T03:14:26.636Z,22.48
2023-02-24T03:16:55.860Z,25.70
2023-02-24T03:19:30.996Z,19.48
2023-02-24T03:22:27.590Z,19.77
2023-02-24T03:24:55.398Z,22.13
2023-02-24T03:27:58.122Z,25.27
2023-02-24T03:30:32.596Z,17.15
2023-02-24T03:33:09.868Z,21.38
2023-02-24T03:35:39.667Z,13.98
2023-02-24T03:38:06.542Z,22.25
2023-02-24T03:40:35.920Z,21.75
2023-02-24T03:43:32.561Z,17.67
2023-02-24T03:46:10.580Z,21.50
2023-02-24T03:48:46.766Z,22.77
2023-02-24T03:51:22.043Z,17.58
2023-02-24T03:53:48.543Z,15.88
2023-02-24T03:57:02.928Z,20.88
2023-02-24T04:00:20.436Z,24.67
2023-02-24T04:03:09.855Z,22.90
2023-02-24T04:05:48.920Z,24.80
2023-02-24T04:08:25.801Z,19.67
2023-02-24T04:11:05.322Z,25.42
2023-02-24T04:13:35.616Z,20.35
2023-02-24T04:16:36.466Z,26.45
2023-02-24T04:19:09.091Z,18.52
2023-02-24T04:21:38.431Z,20.02
2023-02-24T04:26:58.973Z,28.20
2023-02-24T04:29:38.734Z,22.55
2023-02-24T04:32:11.512Z,22.48
2023-02-24T04:34:40.311Z,17.60
2023-02-24T04:37:07.234Z,24.67
2023-02-24T04:39:39.788Z,24.13
2023-02-24T04:42:07.062Z,20.92
2023-02-24T04:44:33.863Z,19.13
2023-02-24T04:47:00.796Z,21.38
2023-02-24T04:49:27.718Z,18.30
2023-02-24T04:51:54.144Z,26.77
2023-02-24T04:54:21.012Z,18.80
2023-02-24T04:56:50.924Z,17.98
2023-02-24T04:59:22.194Z,19.58
2023-02-24T05:01:52.886Z,26.05
2023-02-24T05:04:22.592Z,16.02
2023-02-24T05:06:49.228Z,21.27
2023-02-24T05:09:17.982Z,23.27
2023-02-24T05:11:46.623Z,20.58
2023-02-24T05:14:14.590Z,24.52
2023-02-24T05:16:43.287Z,26.35
2023-02-24T05:19:34.139Z,22.25
2023-02-24T05:22:05.522Z,24.92
2023-02-24T05:24:31.958Z,20.75
2023-02-24T05:27:03.601Z,20.25
2023-02-24T05:29:33.013Z,17.98
2023-02-24T05:32:00.492Z,20.95
2023-02-24T05:34:30.576Z,22.38
2023-02-24T05:36:59.212Z,21.55
2023-02-24T05:39:26.357Z,24.65
2023-02-24T05:41:54.646Z,20.10
2023-02-24T05:44:23.560Z,28.58
2023-02-24T05:46:56.549Z,22.60
2023-02-24T05:49:32.959Z,21.73
2023-02-24T05:52:01.864Z,13.32
2023-02-24T05:54:30.479Z,33.17
2023-02-24T05:57:02.672Z,21.75
2023-02-24T05:59:33.210Z,23.40
2023-02-24T06:02:06.822Z,26.30
2023-02-24T06:04:40.638Z,23.92
2023-02-24T06:07:20.913Z,18.33
2023-02-24T06:09:53.657Z,25.00
2023-02-24T06:12:22.170Z,22.45
2023-02-24T06:14:48.615Z,24.98
2023-02-24T06:17:16.957Z,26.42
2023-02-24T06:19:44.813Z,25.70
2023-02-24T06:22:16.213Z,19.55
2023-02-24T06:24:45.517Z,26.42
2023-02-24T06:27:17.906Z,25.80
2023-02-24T06:29:51.604Z,23.23
2023-02-24T06:32:23.848Z,22.58
2023-02-24T06:34:51.846Z,21.55
2023-02-24T06:37:18.330Z,21.52
2023-02-24T06:39:45.229Z,24.35
2023-02-24T06:42:12.877Z,21.98
2023-02-24T06:44:40.983Z,21.98
2023-02-24T06:47:10.879Z,27.77
2023-02-24T06:49:37.508Z,26.33
2023-02-24T06:52:04.535Z,27.42
2023-02-24T06:54:37.769Z,21.77
2023-02-24T06:57:04.487Z,22.40
2023-02-24T06:59:32.340Z,26.48
2023-02-24T07:02:01.931Z,19.65
2023-02-24T07:04:29.164Z,17.65
2023-02-24T07:07:02.914Z,16.33
2023-02-24T07:09:41.043Z,21.98
2023-02-24T07:12:07.959Z,21.73
2023-02-24T07:14:36.909Z,17.63
2023-02-24T07:17:03.633Z,17.60
2023-02-24T07:19:32.390Z,19.58
2023-02-24T07:22:00.897Z,19.13
2023-02-24T07:24:33.315Z,17.70
2023-02-24T07:27:04.065Z,19.50
2023-02-24T07:29:32.448Z,13.75
2023-02-24T07:32:05.455Z,18.77
2023-02-24T07:34:33.598Z,17.92
2023-02-24T07:37:07.801Z,15.73
2023-02-24T07:39:36.868Z,16.23
2023-02-24T07:42:04.085Z,18.48
2023-02-24T07:44:30.689Z,18.45
2023-02-24T07:46:59.143Z,15.13
2023-02-24T07:49:27.768Z,16.65
2023-02-24T07:51:57.855Z,14.43
2023-02-24T07:54:27.705Z,14.13
2023-02-24T07:56:57.731Z,16.15
2023-02-24T07:59:38.075Z,10.40
2023-02-24T08:02:07.577Z,17.77
2023-02-24T08:04:36.223Z,10.95
2023-02-24T08:07:04.098Z,13.07
2023-02-24T08:09:45.819Z,13.38
2023-02-24T08:12:21.122Z,13.60
2023-02-24T08:14:54.263Z,14.07
2023-02-24T08:17:26.275Z,15.63
2023-02-24T08:20:14.556Z,11.63
2023-02-24T08:22:46.994Z,14.75
2023-02-24T08:25:19.177Z,10.55
2023-02-24T08:28:06.401Z,10.40
2023-02-24T08:30:44.827Z,18.48
2023-02-24T08:33:20.503Z,9.57
2023-02-24T08:35:52.374Z,16.38
2023-02-24T08:39:24.458Z,12.48
2023-02-24T08:41:54.875Z,12.95
2023-02-24T08:44:21.324Z,10.10
2023-02-24T08:46:49.974Z,13.02
2023-02-24T08:49:17.160Z,15.63
2023-02-24T08:51:48.777Z,22.95
2023-02-24T08:54:27.598Z,9.48
2023-02-24T08:56:56.435Z,15.43
2023-02-24T08:59:59.180Z,17.40
2023-02-24T09:02:29.251Z,16.50
2023-02-24T09:05:03.685Z,13.43
2023-02-24T09:07:36.463Z,9.35
2023-02-24T09:10:11.622Z,15.23
2023-02-24T09:13:10.818Z,15.10
2023-02-24T09:15:41.502Z,13.73
2023-02-24T09:18:08.039Z,11.48
2023-02-24T09:20:53.124Z,10.63
2023-02-24T09:23:29.710Z,15.80
2023-02-24T09:25:56.958Z,15.75
2023-02-24T09:28:32.717Z,14.52
2023-02-24T09:31:04.736Z,12.80
2023-02-24T09:34:01.981Z,12.00
2023-02-24T09:36:28.390Z,13.10
2023-02-24T09:39:00.449Z,12.20
2023-02-24T09:42:17.831Z,11.90
2023-02-24T09:44:52.597Z,11.32
2023-02-24T09:47:57.308Z,14.32
2023-02-24T09:51:02.689Z,11.88
2023-02-24T09:53:49.203Z,12.30
2023-02-24T09:56:28.544Z,11.85
2023-02-24T09:59:20.730Z,18.85
2023-02-24T10:02:28.110Z,11.05
2023-02-24T10:05:07.018Z,11.30
2023-02-24T10:07:40.857Z,13.65
2023-02-24T10:10:21.015Z,15.55
2023-02-24T10:12:52.621Z,14.80
2023-02-24T10:15:46.779Z,14.77
2023-02-24T10:18:29.707Z,15.27
2023-02-24T10:21:06.635Z,12.48
2023-02-24T10:24:16.092Z,10.52
2023-02-24T10:27:01.310Z,11.18
2023-02-24T10:29:55.554Z,11.65
2023-02-24T10:32:47.855Z,11.73
2023-02-24T10:35:17.499Z,16.83
2023-02-24T10:37:44.920Z,14.73
2023-02-24T10:40:17.419Z,12.52
2023-02-24T10:42:48.738Z,17.17
2023-02-24T10:45:27.366Z,16.25
2023-02-24T10:48:05.237Z,8.45
2023-02-24T10:50:55.216Z,22.88
2023-02-24T10:53:29.657Z,20.10
2023-02-24T10:56:22.674Z,12.13
2023-02-24T10:59:20.412Z,12.13
2023-02-24T11:01:59.236Z,10.38
2023-02-24T11:05:02.845Z,13.73
2023-02-24T11:07:53.552Z,12.57
2023-02-24T11:10:26.241Z,12.80
2023-02-24T11:13:14.164Z,9.10
2023-02-24T11:16:11.025Z,18.13
2023-02-24T11:18:39.260Z,10.60
2023-02-24T11:21:10.740Z,10.70
2023-02-24T11:23:44.144Z,12.93
2023-02-24T11:26:33.890Z,15.88
2023-02-24T11:29:32.374Z,8.88
2023-02-24T11:32:30.224Z,13.25
2023-02-24T11:35:04.226Z,14.23
2023-02-24T11:37:40.677Z,13.50
2023-02-24T11:40:27.680Z,12.80
2023-02-24T11:43:11.719Z,16.50
2023-02-24T11:45:41.020Z,17.90
2023-02-24T11:48:19.901Z,16.48
2023-02-24T11:50:55.632Z,12.55
2023-02-24T11:53:49.357Z,15.05
2023-02-24T11:56:23.012Z,11.98
2023-02-24T11:58:49.404Z,11.55
2023-02-24T12:01:35.226Z,14.88
2023-02-24T12:04:10.536Z,16.20
2023-02-24T12:06:56.831Z,12.55
2023-02-24T12:09:29.035Z,16.95
2023-02-24T12:12:23.545Z,25.52
2023-02-24T12:18:24.328Z,20.33
2023-02-24T12:21:13.855Z,12.05
2023-02-24T12:23:46.146Z,12.80
2023-02-24T12:27:11.434Z,18.50
2023-02-24T12:34:08.539Z,12.20
2023-02-24T12:36:56.920Z,13.45
2023-02-24T12:39:41.944Z,15.20
2023-02-24T12:42:19.274Z,15.98
2023-02-24T12:45:16.683Z,13.02
2023-02-24T12:47:56.442Z,16.02
2023-02-24T12:50:44.806Z,19.27
2023-02-24T12:53:57.520Z,20.83
2023-02-24T12:56:46.883Z,13.80
2023-02-24T12:59:20.231Z,14.77
2023-02-24T13:02:06.168Z,14.38
2023-02-24T13:04:39.068Z,17.42
2023-02-24T13:07:24.267Z,15.65
2023-02-24T13:10:24.577Z,13.35
2023-02-24T13:12:59.510Z,20.63
2023-02-24T13:15:31.148Z,20.17
2023-02-24T13:17:58.417Z,14.90
2023-02-24T13:20:26.446Z,18.30
2023-02-24T13:22:53.086Z,17.77
2023-02-24T13:25:30.509Z,15.60
2023-02-24T13:28:00.183Z,15.60
2023-02-24T13:30:33.219Z,16.35
2023-02-24T13:33:21.888Z,17.17
2023-02-24T13:35:52.221Z,17.52
2023-02-24T13:38:30.800Z,16.33
2023-02-24T13:41:27.552Z,16.85
2023-02-24T13:43:58.793Z,15.18
2023-02-24T13:46:29.667Z,16.77
2023-02-24T13:49:22.894Z,17.13
2023-02-24T13:51:59.306Z,16.48
2023-02-24T13:54:38.744Z,17.40
2023-02-24T13:57:33.122Z,17.55
2023-02-24T14:00:21.872Z,18.35
2023-02-24T14:02:49.238Z,16.75
2023-02-24T14:05:27.607Z,19.08
2023-02-24T14:07:55.412Z,21.00
2023-02-24T14:10:26.050Z,18.42
2023-02-24T14:13:29.155Z,18.90
2023-02-24T14:15:56.615Z,16.55
2023-02-24T14:18:28.161Z,18.25
2023-02-24T14:20:56.771Z,18.77
2023-02-24T14:23:28.786Z,18.73
2023-02-24T14:26:03.174Z,18.40
2023-02-24T14:28:36.308Z,22.75
2023-02-24T14:31:10.888Z,25.42
2023-02-24T14:33:40.377Z,27.15
2023-02-24T14:36:25.509Z,28.20
2023-02-24T14:39:14.643Z,26.25
2023-02-24T14:41:43.444Z,27.40
2023-02-24T14:44:23.787Z,30.77
2023-02-24T14:47:00.219Z,32.58
2023-02-24T14:49:29.452Z,28.92
2023-02-24T14:52:16.782Z,35.20
2023-02-24T14:54:50.461Z,35.28
2023-02-24T14:57:24.715Z,36.90
2023-02-24T15:00:00.061Z,35.47
2023-02-24T15:02:33.341Z,35.97
2023-02-24T15:05:00.353Z,39.72
2023-02-24T15:07:30.489Z,40.30
2023-02-24T15:10:25.052Z,42.28
2023-02-24T15:13:00.956Z,41.50
2023-02-24T15:15:38.112Z,43.30
2023-02-24T15:18:15.042Z,43.33
2023-02-24T15:20:41.632Z,44.58
2023-02-24T15:23:31.086Z,45.55
2023-02-24T15:25:58.327Z,42.78
2023-02-24T15:28:36.261Z,41.42
2023-02-24T15:31:18.671Z,42.25
2023-02-24T15:33:54.374Z,47.72
2023-02-24T15:36:34.537Z,44.33
2023-02-24T15:39:05.364Z,48.53
2023-02-24T15:41:46.564Z,45.72
2023-02-24T15:44:31.399Z,43.80
2023-02-24T15:46:59.994Z,42.45
2023-02-24T15:49:26.439Z,46.58
2023-02-24T15:51:55.813Z,43.55
2023-02-24T15:54:30.391Z,46.25
2023-02-24T15:57:06.843Z,45.80
2023-02-24T15:59:33.864Z,41.90
2023-02-24T16:02:00.276Z,44.50
2023-02-24T16:04:27.748Z,41.10
2023-02-24T16:09:56.549Z,33.53
2023-02-24T16:12:33.123Z,39.30
2023-02-24T16:15:04.080Z,39.45
2023-02-24T16:17:40.933Z,40.53
2023-02-24T16:20:13.546Z,38.97
2023-02-24T16:22:40.174Z,39.08
2023-02-24T16:25:08.790Z,36.28
2023-02-24T16:27:35.971Z,38.90
2023-02-24T16:30:02.941Z,39.30
2023-02-24T16:32:29.653Z,36.53
2023-02-24T16:34:57.056Z,41.45
2023-02-24T16:37:28.649Z,38.70
2023-02-24T16:39:56.764Z,41.40
2023-02-24T16:42:23.232Z,41.88
2023-02-24T16:44:50.017Z,43.83
2023-02-24T16:47:23.435Z,44.40
2023-02-24T16:50:04.572Z,49.72
2023-02-24T16:52:31.016Z,44.50
2023-02-24T16:54:58.588Z,53.85
2023-02-24T16:57:25.788Z,51.83
2023-02-24T16:59:52.621Z,55.40
2023-02-24T17:02:22.485Z,54.55
2023-02-24T17:04:49.139Z,54.05
2023-02-24T17:07:16.277Z,54.40
2023-02-24T17:09:42.692Z,55.95
2023-02-24T17:12:12.790Z,54.47
2023-02-24T17:14:41.930Z,52.22
2023-02-24T17:17:08.476Z,50.25
2023-02-24T17:19:34.950Z,55.30
2023-02-24T17:22:01.476Z,50.28
2023-02-24T17:24:31.044Z,52.17
2023-02-24T17:26:59.808Z,52.10
2023-02-24T17:29:26.792Z,54.13
2023-02-24T17:31:53.431Z,52.67
2023-02-24T17:34:21.693Z,56.30
2023-02-24T17:36:48.068Z,54.00
2023-02-24T17:39:14.425Z,51.90
2023-02-24T17:41:40.867Z,51.10
2023-02-24T17:44:07.254Z,50.25
2023-02-24T17:46:33.656Z,51.47
2023-02-24T17:49:13.503Z,51.35
2023-02-24T17:51:40.016Z,45.83
2023-02-24T17:54:08.485Z,47.85
2023-02-24T17:56:35.101Z,48.13
2023-02-24T17:59:01.536Z,44.35
2023-02-24T18:01:28.633Z,45.47
2023-02-24T18:03:57.357Z,45.95
2023-02-24T18:06:24.521Z,41.58
2023-02-24T18:08:51.063Z,43.20
2023-02-24T18:11:19.612Z,42.00
2023-02-24T18:13:47.477Z,36.58
2023-02-24T18:16:15.289Z,33.58
2023-02-24T18:18:41.995Z,31.55
2023-02-24T18:21:08.715Z,30.58
2023-02-24T18:23:36.511Z,25.50
2023-02-24T18:26:04.534Z,29.58
2023-02-24T18:28:32.339Z,26.00
2023-02-24T18:31:00.429Z,26.65
2023-02-24T18:33:27.409Z,25.80
2023-02-24T18:36:01.061Z,21.00
2023-02-24T18:38:30.697Z,19.65
2023-02-24T18:41:05.185Z,22.88
2023-02-24T18:43:33.049Z,23.90
2023-02-24T18:46:01.611Z,16.58
2023-02-24T18:48:29.746Z,16.08
2023-02-24T18:51:00.585Z,15.77
2023-02-24T18:53:30.159Z,16.25
2023-02-24T18:56:05.629Z,17.08
2023-02-24T18:58:32.110Z,14.95
2023-02-24T19:00:59.575Z,18.15
2023-02-24T19:03:26.118Z,14.35
2023-02-24T19:05:52.616Z,16.63
2023-02-24T19:08:19.305Z,14.38
2023-02-24T19:10:48.103Z,14.32
2023-02-24T19:13:14.743Z,14.77
2023-02-24T19:15:41.168Z,16.52
2023-02-24T19:18:07.707Z,13.43
2023-02-24T19:20:34.125Z,13.35
2023-02-24T19:23:01.294Z,15.40
2023-02-24T19:25:27.748Z,15.30
2023-02-24T19:27:54.259Z,13.43
2023-02-24T19:30:20.824Z,13.52
2023-02-24T19:32:47.390Z,12.90
2023-02-24T19:35:13.995Z,11.82
2023-02-24T19:37:40.465Z,12.32
2023-02-24T19:40:07.342Z,13.73
2023-02-24T19:42:33.956Z,13.13
2023-02-24T19:45:00.462Z,11.93
2023-02-24T19:47:27.043Z,12.57
2023-02-24T19:49:53.537Z,15.95
2023-02-24T19:52:20.007Z,13.23
2023-02-24T19:54:46.472Z,16.17
2023-02-24T19:57:12.910Z,12.02
2023-02-24T19:59:39.583Z,13.27
2023-02-24T20:02:06.864Z,14.95
2023-02-24T20:04:33.554Z,11.93
2023-02-24T20:07:00.027Z,12.60
2023-02-24T20:09:26.955Z,15.75
2023-02-24T20:11:54.727Z,14.63
2023-02-24T20:14:21.352Z,14.93
2023-02-24T20:16:48.032Z,13.45
2023-02-24T20:19:15.575Z,15.10
2023-02-24T20:21:44.748Z,13.40
2023-02-24T20:24:14.101Z,13.85
2023-02-24T20:26:42.355Z,11.57
2023-02-24T20:29:09.385Z,13.82
2023-02-24T20:31:36.027Z,10.57
2023-02-24T20:34:08.939Z,17.15
2023-02-24T20:36:35.559Z,16.75
2023-02-24T20:39:02.291Z,11.70
2023-02-24T20:41:32.996Z,12.30
2023-02-24T20:43:59.714Z,10.95
2023-02-24T20:46:30.249Z,13.27
2023-02-24T20:49:01.459Z,12.38
2023-02-24T20:51:29.393Z,14.48
2023-02-24T20:53:58.502Z,13.10
2023-02-24T20:56:28.097Z,15.50
2023-02-24T20:59:05.995Z,12.18
2023-02-24T21:01:36.772Z,14.65
2023-02-24T21:04:03.688Z,9.07
2023-02-24T21:06:32.992Z,16.13
2023-02-24T21:08:59.761Z,15.98
2023-02-24T21:11:26.921Z,17.25
2023-02-24T21:13:56.091Z,11.10
2023-02-24T21:16:24.532Z,13.07
2023-02-24T21:18:53.972Z,10.15
2023-02-24T21:21:20.926Z,13.85
2023-02-24T21:23:47.934Z,12.75
2023-02-24T21:26:14.550Z,12.52
2023-02-24T21:28:40.982Z,12.18
2023-02-24T21:31:12.648Z,11.05
2023-02-24T21:33:39.275Z,14.60
2023-02-24T21:36:13.432Z,17.67
2023-02-24T21:41:14.915Z,12.60
2023-02-24T21:43:42.477Z,13.20
2023-02-24T21:46:09.142Z,12.32
2023-02-24T21:48:36.979Z,12.55
2023-02-24T21:51:08.391Z,19.05
2023-02-24T21:53:38.303Z,11.48
2023-02-24T21:56:19.464Z,12.50
2023-02-24T21:58:52.003Z,12.40
2023-02-24T22:01:24.419Z,16.48
2023-02-24T22:03:59.290Z,13.43
2023-02-24T22:06:31.714Z,21.00
2023-02-24T22:08:59.529Z,14.90
2023-02-24T22:11:25.997Z,15.73
2023-02-24T22:13:52.824Z,17.15
2023-02-24T22:16:22.150Z,12.13
2023-02-24T22:18:49.391Z,18.15
2023-02-24T22:21:18.406Z,16.23
2023-02-24T22:23:47.565Z,18.98
2023-02-24T22:26:15.097Z,13.75
2023-02-24T22:28:49.605Z,15.75
2023-02-24T22:31:19.368Z,18.30
2023-02-24T22:33:46.231Z,13.38
2023-02-24T22:36:19.261Z,18.60
2023-02-24T22:38:46.667Z,25.55
2023-02-24T22:41:19.281Z,27.38
2023-02-24T22:43:45.851Z,20.60
2023-02-24T22:46:15.314Z,26.60
2023-02-24T22:48:42.056Z,27.52
2023-02-24T22:51:10.834Z,23.75
2023-02-24T22:53:40.209Z,22.58
2023-02-24T22:56:08.158Z,14.07
2023-02-24T22:58:34.535Z,15.88
2023-02-24T23:01:00.947Z,16.75
2023-02-24T23:03:30.931Z,19.67
2023-02-24T23:05:59.150Z,22.52
2023-02-24T23:08:27.512Z,20.40
2023-02-24T23:10:55.983Z,15.63
2023-02-24T23:13:22.463Z,17.25
2023-02-24T23:18:36.976Z,15.27
2023-02-24T23:21:06.271Z,17.52
2023-02-24T23:23:33.881Z,15.60
2023-02-24T23:26:00.435Z,15.95
2023-02-24T23:28:27.795Z,17.75
2023-02-24T23:31:04.450Z,12.23
2023-02-24T23:33:30.900Z,16.90
2023-02-24T23:36:03.189Z,17.85
2023-02-24T23:38:39.249Z,15.30
2023-02-24T23:41:10.426Z,15.60
2023-02-24T23:43:39.848Z,14.68
2023-02-24T23:46:08.649Z,13.43
2023-02-24T23:48:36.125Z,9.68
2023-02-24T23:51:08.152Z,13.75
2023-02-24T23:53:42.898Z,12.35
2023-02-24T23:56:20.610Z,17.23
2023-02-24T23:58:52.438Z,12.00
